Time;durP1;ratioP1;P1;durP2;ratioP2;P2;SDS_P1;SDS_P2;PMS_P1;PMS_P2;Temp;Humidity;BMP_temperature;BMP_pressure;BME280_temperature;BME280_humidity;BME280_pressure;Samples;Min_cycle;Max_cycle;Signal;HPM_P1;HPM_P2
2023/01/06 00:01:23;;;;;;;3.35;2.00;;;10.00;88.40;;;;;;5051886;28;20273;-67
2023/01/06 00:03:57;;;;;;;2.35;1.30;;;10.00;88.70;;;;;;5069112;28;20213;-67
2023/01/06 00:06:26;;;;;;;2.20;1.10;;;9.90;89.90;;;;;;5075831;28;20727;-67
2023/01/06 00:08:54;;;;;;;2.50;1.20;;;9.90;90.10;;;;;;5061406;28;20186;-66
2023/01/06 00:11:23;;;;;;;2.08;1.25;;;9.80;90.10;;;;;;5055549;28;20187;-66
2023/01/06 00:13:55;;;;;;;2.20;1.33;;;9.70;90.10;;;;;;5068093;28;20239;-67
2023/01/06 00:16:25;;;;;;;2.78;1.50;;;9.60;90.20;;;;;;5063909;28;20194;-67
2023/01/06 00:18:59;;;;;;;2.10;1.20;;;9.50;90.50;;;;;;5055068;28;20708;-67
2023/01/06 00:21:27;;;;;;;1.95;1.00;;;9.40;90.80;;;;;;5066374;28;20197;-67
2023/01/06 00:23:54;;;;;;;3.53;1.42;;;9.40;91.00;;;;;;5075096;28;20617;-67
2023/01/06 00:26:23;;;;;;;2.78;1.40;;;9.40;91.20;;;;;;5064981;28;20226;-67
2023/01/06 00:28:53;;;;;;;2.85;1.40;;;9.30;91.30;;;;;;5055173;28;20755;-67
2023/01/06 00:31:20;;;;;;;2.10;1.10;;;9.30;91.40;;;;;;5063833;28;20267;-67
2023/01/06 00:33:48;;;;;;;2.50;1.30;;;9.30;91.50;;;;;;5075221;28;20262;-67
2023/01/06 00:36:16;;;;;;;2.58;1.50;;;9.20;91.60;;;;;;5066562;28;20201;-67
2023/01/06 00:38:44;;;;;;;3.00;1.20;;;9.10;91.70;;;;;;5055229;28;20706;-66
2023/01/06 00:44:02;;;;;;;3.22;1.08;;;9.00;90.80;;;;;;5061377;28;20282;-66
2023/01/06 00:46:30;;;;;;;2.83;1.33;;;9.00;90.50;;;;;;5054813;28;20646;-67
2023/01/06 00:48:58;;;;;;;2.50;1.35;;;8.90;90.80;;;;;;5062653;28;20196;-66
2023/01/06 00:51:25;;;;;;;3.30;1.95;;;8.80;91.30;;;;;;5074919;28;20189;-66
2023/01/06 00:53:53;;;;;;;2.10;1.02;;;8.80;91.70;;;;;;5067055;28;20648;-67
2023/01/06 00:56:21;;;;;;;2.53;1.10;;;8.70;91.80;;;;;;5054768;28;20196;-67
2023/01/06 00:58:49;;;;;;;3.53;1.50;;;8.70;91.80;;;;;;5060178;28;20193;-67
2023/01/06 01:01:17;;;;;;;2.33;1.10;;;8.60;91.90;;;;;;5074594;28;20193;-67
2023/01/06 01:03:52;;;;;;;3.33;1.55;;;8.50;92.30;;;;;;5069193;28;20210;-67
2023/01/06 01:06:20;;;;;;;2.92;1.35;;;8.40;92.50;;;;;;5054346;28;20780;-67
2023/01/06 01:08:48;;;;;;;3.20;1.30;;;8.40;92.70;;;;;;5058712;28;20243;-66
2023/01/06 01:12:08;;;;;;;5.70;1.80;;;8.30;92.50;;;;;;5074767;28;20204;-67
2023/01/06 01:14:02;;;;;;;2.63;1.83;;;8.30;92.30;;;;;;5061771;28;20900;-67
2023/01/06 01:16:32;;;;;;;3.67;2.17;;;8.30;92.00;;;;;;5054260;28;20237;-67
2023/01/06 01:18:59;;;;;;;3.70;1.98;;;8.20;92.40;;;;;;5064590;28;20223;-67
2023/01/06 01:21:27;;;;;;;2.70;1.88;;;8.10;92.60;;;;;;5074107;28;20274;-67
2023/01/06 01:23:59;;;;;;;3.15;2.17;;;8.10;92.40;;;;;;5064338;28;20614;-66
2023/01/06 01:26:28;;;;;;;3.25;2.22;;;8.00;92.50;;;;;;5054059;28;20201;-66
2023/01/06 01:28:55;;;;;;;3.90;2.00;;;7.90;92.40;;;;;;5062687;28;20192;-67
2023/01/06 01:31:24;;;;;;;2.90;2.35;;;7.80;92.00;;;;;;5074157;28;20583;-67
2023/01/06 01:34:00;;;;;;;4.80;2.40;;;7.80;92.20;;;;;;5065485;28;20215;-66
2023/01/06 01:36:28;;;;;;;3.60;2.28;;;7.70;92.10;;;;;;5053585;28;20193;-67
2023/01/06 01:38:56;;;;;;;5.00;2.55;;;7.70;92.00;;;;;;5061442;28;20576;-67
2023/01/06 01:41:25;;;;;;;5.43;2.50;;;7.70;91.90;;;;;;5073912;28;20280;-67
2023/01/06 01:43:57;;;;;;;4.32;2.10;;;7.70;91.80;;;;;;5065784;28;20349;-66
2023/01/06 01:46:29;;;;;;;3.40;1.58;;;7.60;91.60;;;;;;5053850;28;20196;-67
2023/01/06 01:49:01;;;;;;;5.05;2.08;;;7.60;91.70;;;;;;5060014;28;20493;-66
2023/01/06 01:51:33;;;;;;;3.28;1.30;;;7.50;91.60;;;;;;5073763;28;20244;-67
2023/01/06 01:54:04;;;;;;;2.50;1.40;;;7.40;91.60;;;;;;5065786;28;20271;-66
2023/01/06 01:56:36;;;;;;;3.30;1.70;;;7.40;91.50;;;;;;5053516;28;20294;-67
2023/01/06 01:59:07;;;;;;;3.22;1.70;;;7.30;91.10;;;;;;5060226;28;20190;-66
2023/01/06 02:01:35;;;;;;;2.75;1.92;;;7.30;91.20;;;;;;5073607;28;20221;-66
2023/01/06 02:04:04;;;;;;;3.05;1.90;;;7.30;91.70;;;;;;5066788;28;20229;-67
2023/01/06 02:06:32;;;;;;;3.88;1.92;;;7.20;91.60;;;;;;5053314;28;20255;-67
2023/01/06 02:09:06;;;;;;;4.25;1.77;;;7.20;91.10;;;;;;5058378;28;20195;-67
2023/01/06 02:11:36;;;;;;;2.88;2.00;;;7.00;90.70;;;;;;5073261;28;20189;-67
2023/01/06 02:14:10;;;;;;;2.42;1.40;;;7.00;90.90;;;;;;5070757;28;20188;-66
2023/01/06 02:17:01;;;;;;;1.80;1.08;;;6.90;91.10;;;;;;5073265;28;20194;-66
2023/01/06 02:19:55;;;;;;;3.00;1.55;;;6.90;91.20;;;;;;5058461;28;20223;-67
2023/01/06 02:22:41;;;;;;;5.70;2.20;;;6.90;91.10;;;;;;5053368;28;20641;-66
2023/01/06 02:25:54;;;;;;;2.70;1.65;;;6.90;91.10;;;;;;5070832;28;20691;-66
2023/01/06 02:29:00;;;;;;;5.30;1.42;;;6.70;91.20;;;;;;5050883;28;20194;-67
2023/01/06 02:31:54;;;;;;;2.60;1.45;;;6.70;91.50;;;;;;5062324;28;20611;-66
2023/01/06 02:34:27;;;;;;;2.65;1.60;;;6.70;91.10;;;;;;5072917;28;20615;-67
2023/01/06 02:37:06;;;;;;;2.40;1.50;;;6.60;91.20;;;;;;5059351;28;20217;-66
2023/01/06 02:39:50;;;;;;;2.40;1.40;;;6.60;91.20;;;;;;5052768;28;20194;-66
2023/01/06 02:42:22;;;;;;;2.65;1.50;;;6.60;90.80;;;;;;5067876;28;20189;-67
2023/01/06 02:45:01;;;;;;;2.30;1.20;;;6.50;90.80;;;;;;5072652;28;20219;-67
2023/01/06 02:47:36;;;;;;;2.10;1.20;;;6.40;90.90;;;;;;5055445;28;20182;-66
2023/01/06 02:50:17;;;;;;;2.95;1.40;;;6.40;91.00;;;;;;5052510;28;20206;-67
2023/01/06 02:52:55;;;;;;;2.75;1.65;;;6.40;91.20;;;;;;5070481;28;20559;-67
2023/01/06 02:55:28;;;;;;;3.13;1.50;;;6.30;91.20;;;;;;5072433;28;20719;-66
2023/01/06 02:58:02;;;;;;;2.35;1.50;;;6.30;91.40;;;;;;5052653;28;20182;-66
2023/01/06 03:00:35;;;;;;;3.15;1.83;;;6.20;91.40;;;;;;5070054;28;20189;-66
2023/01/06 03:03:09;;;;;;;3.90;1.75;;;6.20;91.20;;;;;;5072142;28;20190;-67
2023/01/06 03:05:38;;;;;;;2.10;1.35;;;6.20;90.80;;;;;;5053692;28;20532;-66
2023/01/06 03:08:09;;;;;;;3.25;1.55;;;6.10;91.00;;;;;;5052086;28;20190;-66
2023/01/06 03:10:38;;;;;;;2.67;1.20;;;6.10;91.30;;;;;;5069401;28;20194;-67
2023/01/06 03:13:09;;;;;;;4.45;2.13;;;6.10;91.40;;;;;;5072146;28;20705;-66
2023/01/06 03:15:40;;;;;;;4.57;1.90;;;6.10;91.40;;;;;;5054296;28;20190;-66
2023/01/06 03:18:09;;;;;;;2.97;2.20;;;6.10;91.70;;;;;;5051771;28;20195;-66
2023/01/06 03:20:37;;;;;;;4.45;2.00;;;6.10;91.60;;;;;;5068214;28;20185;-66
2023/01/06 03:23:05;;;;;;;2.63;1.50;;;6.10;91.50;;;;;;5072083;28;20189;-66
2023/01/06 03:25:32;;;;;;;2.20;1.10;;;6.10;91.10;;;;;;5056190;28;20210;-66
2023/01/06 03:28:01;;;;;;;2.58;1.45;;;6.10;90.70;;;;;;5065537;28;20586;-67
2023/01/06 03:30:39;;;;;;;2.42;1.60;;;6.00;90.80;;;;;;5071966;28;20226;-67
2023/01/06 03:33:12;;;;;;;2.10;1.40;;;6.00;91.00;;;;;;5056989;28;20657;-67
2023/01/06 03:35:51;;;;;;;2.20;1.48;;;6.00;91.40;;;;;;5051820;28;20202;-66
2023/01/06 03:38:27;;;;;;;2.63;1.50;;;5.90;91.70;;;;;;5067196;28;20185;-67
2023/01/06 03:41:04;;;;;;;2.47;1.10;;;5.90;91.30;;;;;;5071711;28;20276;-67
2023/01/06 03:43:38;;;;;;;2.88;1.45;;;5.90;91.40;;;;;;5054751;28;20284;-66
2023/01/06 03:46:25;;;;;;;2.20;1.30;;;5.90;91.40;;;;;;5051840;28;20189;-66
2023/01/06 03:49:05;;;;;;;3.10;1.80;;;5.80;91.30;;;;;;5070342;28;20196;-67
2023/01/06 03:51:46;;;;;;;2.00;1.10;;;5.80;91.30;;;;;;5065417;28;20257;-66
2023/01/06 03:54:25;;;;;;;2.65;1.60;;;5.80;91.50;;;;;;5051612;28;20551;-67
2023/01/06 03:57:02;;;;;;;1.92;0.90;;;5.70;91.10;;;;;;5058875;28;20198;-67
2023/01/06 03:59:32;;;;;;;2.00;1.10;;;5.70;91.30;;;;;;5071861;28;20196;-67
2023/01/06 04:02:01;;;;;;;2.72;1.35;;;5.60;91.50;;;;;;5063063;28;20217;-66
2023/01/06 04:04:29;;;;;;;2.72;1.38;;;5.50;91.60;;;;;;5051768;28;20218;-66
2023/01/06 04:06:57;;;;;;;3.58;1.65;;;5.60;91.20;;;;;;5058507;28;20640;-66
2023/01/06 04:09:24;;;;;;;2.72;1.40;;;5.60;91.50;;;;;;5071761;28;20192;-66
2023/01/06 04:14:41;;;;;;;2.40;1.30;;;5.60;91.80;;;;;;5051611;28;20189;-66
2023/01/06 04:17:10;;;;;;;2.05;1.30;;;5.60;91.40;;;;;;5059085;28;20597;-66
2023/01/06 04:19:38;;;;;;;2.85;1.95;;;5.60;91.30;;;;;;5065188;28;20229;-66
2023/01/06 04:22:05;;;;;;;2.75;1.40;;;5.50;91.10;;;;;;5051512;28;20651;-66
2023/01/06 04:24:33;;;;;;;3.67;1.70;;;5.50;91.10;;;;;;5055604;28;20228;-67
2023/01/06 04:27:00;;;;;;;2.97;1.85;;;5.50;90.70;;;;;;5071516;28;20198;-66
2023/01/06 04:29:27;;;;;;;4.25;2.85;;;5.30;90.30;;;;;;5064634;28;20193;-66
2023/01/06 04:31:56;;;;;;;4.38;1.70;;;5.20;91.00;;;;;;5051435;28;20194;-66
2023/01/06 04:34:24;;;;;;;3.35;2.10;;;5.20;91.10;;;;;;5056234;28;20189;-66
2023/01/06 04:36:53;;;;;;;3.10;2.00;;;5.10;90.90;;;;;;5071154;28;20236;-67
2023/01/06 04:39:23;;;;;;;3.97;2.38;;;5.10;90.80;;;;;;5066958;28;20183;-66
2023/01/06 04:41:51;;;;;;;5.97;4.53;;;5.10;90.60;;;;;;5051511;28;20649;-67
2023/01/06 04:44:18;;;;;;;5.05;3.30;;;5.00;90.40;;;;;;5064233;28;20300;-67
2023/01/06 04:46:46;;;;;;;5.70;3.17;;;4.90;90.90;;;;;;5071514;28;20248;-68
2023/01/06 04:49:14;;;;;;;2.88;2.20;;;4.90;91.00;;;;;;5054607;28;20341;-66
2023/01/06 04:51:41;;;;;;;3.00;1.95;;;4.90;91.30;;;;;;5054873;28;20598;-66
2023/01/06 04:54:10;;;;;;;4.38;1.98;;;4.90;90.90;;;;;;5072900;28;20273;-66
2023/01/06 04:56:43;;;;;;;2.83;2.03;;;4.90;90.70;;;;;;5074566;28;20194;-66
2023/01/06 04:59:10;;;;;;;3.10;1.80;;;4.90;90.50;;;;;;5057256;28;20660;-66
2023/01/06 05:01:41;;;;;;;3.35;2.42;;;4.90;90.60;;;;;;5054919;28;20228;-66
2023/01/06 05:04:09;;;;;;;2.97;2.30;;;4.90;90.80;;;;;;5070908;28;20228;-66
2023/01/06 05:06:38;;;;;;;3.15;1.92;;;4.80;90.90;;;;;;5074947;28;20200;-66
2023/01/06 05:09:05;;;;;;;3.60;1.90;;;4.80;91.00;;;;;;5058807;28;20201;-66
2023/01/06 05:11:39;;;;;;;2.90;1.65;;;4.80;91.10;;;;;;5054637;28;20281;-66
2023/01/06 05:14:08;;;;;;;2.67;1.85;;;4.70;91.20;;;;;;5074382;28;20189;-66
2023/01/06 05:16:37;;;;;;;6.00;1.80;;;4.80;90.70;;;;;;5074433;28;20252;-66
2023/01/06 05:19:04;;;;;;;2.80;1.60;;;4.80;90.50;;;;;;5074197;28;20241;-66
2023/01/06 05:21:32;;;;;;;4.28;2.42;;;4.70;90.70;;;;;;5074132;28;20189;-66
2023/01/06 05:23:59;;;;;;;5.50;2.78;;;4.70;91.00;;;;;;5074090;28;20247;-66
2023/01/06 05:26:29;;;;;;;3.72;2.38;;;4.70;91.20;;;;;;5074183;28;20185;-66
2023/01/06 05:28:58;;;;;;;3.25;1.67;;;4.70;91.10;;;;;;5074267;28;20236;-66
2023/01/06 05:31:27;;;;;;;2.70;1.73;;;4.70;91.00;;;;;;5073920;28;20189;-66
2023/01/06 05:33:54;;;;;;;3.42;2.20;;;4.60;90.80;;;;;;5071963;28;20193;-67
2023/01/06 05:36:22;;;;;;;4.63;2.63;;;4.70;90.60;;;;;;5068245;28;20823;-67
2023/01/06 05:38:54;;;;;;;3.05;2.15;;;4.70;90.80;;;;;;5060487;28;20225;-66
2023/01/06 05:41:22;;;;;;;5.35;2.08;;;4.60;90.90;;;;;;5054316;28;20190;-66
2023/01/06 05:43:49;;;;;;;3.80;2.08;;;4.60;91.00;;;;;;5060818;28;20182;-66
2023/01/06 05:46:18;;;;;;;2.97;2.08;;;4.50;90.90;;;;;;5074138;28;20222;-66
2023/01/06 05:48:46;;;;;;;2.92;1.85;;;4.50;90.90;;;;;;5066759;28;20224;-66
2023/01/06 05:51:15;;;;;;;2.95;1.73;;;4.50;91.00;;;;;;5056844;28;20185;-66
2023/01/06 05:53:48;;;;;;;3.15;2.05;;;4.60;90.90;;;;;;5073984;28;20557;-66
2023/01/06 05:56:21;;;;;;;3.10;1.88;;;4.60;90.80;;;;;;5070003;28;20228;-66
2023/01/06 05:58:50;;;;;;;4.95;2.30;;;4.50;90.30;;;;;;5054075;28;20194;-66
2023/01/06 06:01:21;;;;;;;4.05;2.15;;;4.50;90.40;;;;;;5056065;28;20653;-66
2023/01/06 06:03:48;;;;;;;3.40;2.17;;;4.50;90.50;;;;;;5072450;28;20202;-66
2023/01/06 06:06:23;;;;;;;3.90;2.35;;;4.40;90.40;;;;;;5071384;28;20228;-67
2023/01/06 06:08:55;;;;;;;3.60;2.00;;;4.40;90.30;;;;;;5060531;28;20213;-66
2023/01/06 06:11:25;;;;;;;3.85;2.53;;;4.40;90.70;;;;;;5072992;28;20281;-66
2023/01/06 06:13:55;;;;;;;4.60;2.63;;;4.40;91.10;;;;;;5072710;28;20192;-66
2023/01/06 06:16:26;;;;;;;4.60;2.90;;;4.50;91.20;;;;;;5073007;28;20185;-66
2023/01/06 06:18:58;;;;;;;3.50;1.92;;;4.50;91.20;;;;;;5073201;28;20279;-66
2023/01/06 06:21:30;;;;;;;3.33;2.17;;;4.50;91.20;;;;;;5072871;28;20704;-67
2023/01/06 06:23:59;;;;;;;3.45;2.25;;;4.40;91.40;;;;;;5073317;28;20189;-67
2023/01/06 06:26:28;;;;;;;3.03;1.80;;;4.40;91.40;;;;;;5072465;28;20217;-67
2023/01/06 06:28:57;;;;;;;3.38;2.10;;;4.40;91.30;;;;;;5072996;28;20718;-67
2023/01/06 06:31:28;;;;;;;3.58;2.20;;;4.40;91.00;;;;;;5072761;28;20185;-67
2023/01/06 06:33:57;;;;;;;3.97;1.98;;;4.30;90.60;;;;;;5073243;28;20201;-67
2023/01/06 06:36:25;;;;;;;3.00;1.50;;;4.20;90.40;;;;;;5072357;28;20623;-67
2023/01/06 06:38:54;;;;;;;2.50;1.63;;;4.10;90.10;;;;;;5073147;28;20190;-68
2023/01/06 06:41:23;;;;;;;3.47;1.98;;;4.00;89.60;;;;;;5072657;28;20190;-67
2023/01/06 06:43:51;;;;;;;3.45;2.15;;;4.00;90.00;;;;;;5072632;28;20190;-68
2023/01/06 06:46:19;;;;;;;3.92;2.42;;;3.90;90.20;;;;;;5072523;28;20279;-67
2023/01/06 06:48:48;;;;;;;3.30;2.15;;;3.90;90.30;;;;;;5073077;28;20307;-67
2023/01/06 06:51:18;;;;;;;2.97;2.10;;;4.00;90.50;;;;;;5072496;28;20189;-67
2023/01/06 06:53:49;;;;;;;2.75;1.50;;;3.90;90.60;;;;;;5072650;28;20233;-67
2023/01/06 06:56:19;;;;;;;4.13;1.60;;;4.00;90.30;;;;;;5072532;28;20196;-67
2023/01/06 06:58:53;;;;;;;2.40;1.40;;;3.90;90.30;;;;;;5073017;28;20216;-67
2023/01/06 07:01:23;;;;;;;4.25;2.20;;;3.90;90.30;;;;;;5072521;28;20181;-67
2023/01/06 07:03:54;;;;;;;3.05;1.92;;;3.90;90.00;;;;;;5072549;28;20225;-67
2023/01/06 07:06:24;;;;;;;3.63;2.20;;;3.90;90.00;;;;;;5071883;28;20214;-67
2023/01/06 07:08:56;;;;;;;3.42;2.67;;;3.90;90.20;;;;;;5072413;28;20270;-67
2023/01/06 07:11:24;;;;;;;4.75;2.90;;;3.80;90.30;;;;;;5071744;28;20236;-67
2023/01/06 07:13:51;;;;;;;7.63;5.15;;;3.80;90.60;;;;;;5072151;28;20189;-68
2023/01/06 07:16:27;;;;;;;7.28;5.57;;;3.90;90.90;;;;;;5068983;28;20186;-67
2023/01/06 07:19:26;;;;;;;11.60;7.07;;;3.90;91.10;;;;;;5108441;27;21077;-66
2023/01/06 07:21:57;;;;;;;13.50;7.88;;;3.90;91.00;;;;;;5105723;28;20180;-66
2023/01/06 07:24:27;;;;;;;9.88;6.80;;;4.00;91.20;;;;;;5107993;28;20233;-66
2023/01/06 07:27:00;;;;;;;8.90;6.60;;;4.00;91.30;;;;;;5104308;28;20184;-66
2023/01/06 07:29:30;;;;;;;8.75;6.57;;;4.10;91.20;;;;;;5108308;28;20188;-66
2023/01/06 07:31:58;;;;;;;11.27;6.90;;;4.00;91.30;;;;;;5107556;28;20602;-67
2023/01/06 07:34:27;;;;;;;9.85;7.30;;;4.10;91.30;;;;;;5107899;28;20215;-66
2023/01/06 07:36:54;;;;;;;7.80;6.20;;;4.20;91.10;;;;;;5108028;28;20188;-67
2023/01/06 07:39:25;;;;;;;8.55;6.35;;;4.20;90.70;;;;;;5107300;28;20207;-66
2023/01/06 07:41:53;;;;;;;9.60;6.78;;;4.40;90.90;;;;;;5108162;28;20188;-66
2023/01/06 07:44:21;;;;;;;9.05;6.07;;;4.60;91.00;;;;;;5107742;28;20192;-66
2023/01/06 07:46:51;;;;;;;7.07;5.30;;;4.80;90.80;;;;;;5106320;28;20192;-66
2023/01/06 07:49:19;;;;;;;8.77;7.38;;;5.00;90.40;;;;;;5101907;28;20264;-66
2023/01/06 07:51:52;;;;;;;8.68;7.40;;;5.20;90.10;;;;;;5107869;28;20257;-67
2023/01/06 07:54:20;;;;;;;7.88;6.28;;;5.30;89.20;;;;;;5107379;28;20230;-67
2023/01/06 07:56:48;;;;;;;8.85;5.70;;;5.50;89.10;;;;;;5107469;28;20195;-67
2023/01/06 07:59:17;;;;;;;7.82;7.00;;;5.70;88.40;;;;;;5107653;28;20208;-66
2023/01/06 08:01:51;;;;;;;6.20;5.60;;;6.00;87.00;;;;;;5107887;28;20215;-66
2023/01/06 08:04:37;;;;;;;7.70;5.80;;;6.30;86.80;;;;;;5107022;28;20702;-67
2023/01/06 08:07:10;;;;;;;7.88;6.28;;;6.50;85.30;;;;;;5107600;28;20189;-67
2023/01/06 08:09:41;;;;;;;6.22;4.78;;;6.50;83.70;;;;;;5104018;28;20201;-67
2023/01/06 08:12:10;;;;;;;12.50;8.52;;;6.50;83.90;;;;;;5107777;28;20204;-67
2023/01/06 08:14:39;;;;;;;10.68;8.65;;;6.40;83.00;;;;;;5106740;28;20257;-67
2023/01/06 08:17:07;;;;;;;9.23;6.28;;;6.40;82.80;;;;;;5106848;28;20196;-67
2023/01/06 08:19:48;;;;;;;8.70;5.75;;;6.30;82.30;;;;;;5107192;28;20563;-66
2023/01/06 08:22:28;;;;;;;7.28;6.07;;;6.30;83.50;;;;;;5103698;28;20196;-67
2023/01/06 08:25:03;;;;;;;6.68;4.75;;;6.30;84.00;;;;;;5107056;28;20177;-66
2023/01/06 08:27:31;;;;;;;6.88;4.78;;;6.30;84.90;;;;;;5105699;28;20260;-66
2023/01/06 08:29:58;;;;;;;6.70;5.55;;;6.30;84.30;;;;;;5097535;28;20189;-67
2023/01/06 08:32:25;;;;;;;8.15;6.28;;;6.40;84.80;;;;;;5093334;28;20191;-67
2023/01/06 08:34:52;;;;;;;7.00;5.40;;;6.50;85.30;;;;;;5092417;28;20194;-67
2023/01/06 08:37:19;;;;;;;7.10;4.72;;;6.50;84.50;;;;;;5092432;28;20186;-67
2023/01/06 08:39:48;;;;;;;5.75;4.15;;;6.60;85.10;;;;;;5093241;28;20608;-67
2023/01/06 08:42:15;;;;;;;8.10;5.85;;;6.70;84.80;;;;;;5093461;28;20296;-67
2023/01/06 08:44:42;;;;;;;7.70;5.90;;;6.90;84.90;;;;;;5092940;28;20277;-67
2023/01/06 08:47:09;;;;;;;6.75;6.05;;;7.10;84.30;;;;;;5093216;28;20186;-66
2023/01/06 08:49:38;;;;;;;6.43;4.85;;;7.20;82.80;;;;;;5093708;28;20252;-66
2023/01/06 08:52:05;;;;;;;5.90;4.22;;;7.50;82.20;;;;;;5093157;28;20241;-67
2023/01/06 08:54:32;;;;;;;4.93;4.32;;;7.80;81.10;;;;;;5093148;28;20659;-67
2023/01/06 08:57:01;;;;;;;5.75;3.97;;;8.10;79.80;;;;;;5091754;28;20537;-67
2023/01/06 08:59:28;;;;;;;6.65;4.32;;;8.40;79.90;;;;;;5093354;28;20318;-67
2023/01/06 09:01:55;;;;;;;5.40;4.07;;;8.70;79.80;;;;;;5093443;28;20196;-67
2023/01/06 09:04:25;;;;;;;9.15;7.03;;;9.20;79.30;;;;;;5088746;28;20230;-66
2023/01/06 09:06:55;;;;;;;10.93;8.60;;;9.80;78.60;;;;;;5092909;28;20215;-66
2023/01/06 09:09:28;;;;;;;10.60;9.50;;;10.20;76.00;;;;;;5093125;28;20189;-67
2023/01/06 09:11:55;;;;;;;12.88;10.75;;;10.50;74.90;;;;;;5089658;28;20719;-67
2023/01/06 09:14:25;;;;;;;21.42;18.63;;;10.60;74.20;;;;;;5092675;28;20236;-67
2023/01/06 09:16:57;;;;;;;11.30;7.80;;;10.80;72.10;;;;;;5093389;28;20208;-66
2023/01/06 09:19:24;;;;;;;14.52;11.35;;;10.90;72.90;;;;;;5092942;28;20263;-66
2023/01/06 09:21:55;;;;;;;15.98;12.70;;;11.30;73.20;;;;;;5092443;28;20224;-67
2023/01/06 09:24:22;;;;;;;16.50;12.00;;;11.80;72.70;;;;;;5093277;28;20280;-66
2023/01/06 09:26:49;;;;;;;15.15;12.45;;;12.30;72.30;;;;;;5093140;28;20215;-66
2023/01/06 09:29:16;;;;;;;15.23;11.50;;;12.60;66.90;;;;;;5088643;28;20630;-66
2023/01/06 09:31:45;;;;;;;9.27;6.72;;;12.70;67.50;;;;;;5092741;28;20216;-66
2023/01/06 09:34:12;;;;;;;8.80;6.70;;;12.90;62.70;;;;;;5093186;28;20282;-66
2023/01/06 09:36:39;;;;;;;7.90;6.00;;;13.10;61.90;;;;;;5091709;28;20243;-66
2023/01/06 09:39:06;;;;;;;6.50;4.93;;;13.30;62.80;;;;;;5092781;28;20557;-66
2023/01/06 09:41:48;;;;;;;6.70;4.40;;;13.50;61.10;;;;;;5091559;28;20443;-67
2023/01/06 09:44:19;;;;;;;7.30;5.10;;;13.90;59.30;;;;;;5092427;28;20446;-66
2023/01/06 09:46:50;;;;;;;5.73;4.60;;;14.30;61.50;;;;;;5092735;28;20466;-66
2023/01/06 09:49:24;;;;;;;4.00;3.23;;;14.70;58.70;;;;;;5092869;28;20431;-67
2023/01/06 09:51:53;;;;;;;3.80;3.30;;;15.00;56.70;;;;;;5092505;28;20959;-66
2023/01/06 09:54:26;;;;;;;5.37;4.10;;;15.40;57.30;;;;;;5092564;28;20922;-66
2023/01/06 09:56:56;;;;;;;4.83;3.50;;;15.80;57.00;;;;;;5092358;28;20439;-67
2023/01/06 09:59:28;;;;;;;4.10;3.43;;;16.00;55.80;;;;;;5092580;28;20521;-67
2023/01/06 10:01:58;;;;;;;4.10;3.40;;;16.00;55.30;;;;;;5090101;28;20518;-66
2023/01/06 10:04:27;;;;;;;4.00;3.20;;;16.20;53.40;;;;;;5084472;28;20721;-66
2023/01/06 10:07:05;;;;;;;5.50;3.47;;;16.40;53.60;;;;;;5090180;28;20508;-66
2023/01/06 10:09:40;;;;;;;3.87;2.60;;;16.80;53.80;;;;;;5090546;28;20456;-67
2023/01/06 10:12:24;;;;;;;3.80;2.27;;;17.40;54.30;;;;;;5090943;28;20917;-66
2023/01/06 10:15:01;;;;;;;2.47;1.97;;;17.70;51.20;;;;;;5086887;28;20487;-67
2023/01/06 10:17:57;;;;;;;3.67;1.80;;;18.00;50.40;;;;;;5087310;28;20502;-66
2023/01/06 10:20:48;;;;;;;3.60;2.13;;;18.50;49.40;;;;;;5088033;28;20455;-67
2023/01/06 10:23:39;;;;;;;7.20;4.20;;;19.00;48.90;;;;;;5088819;28;20454;-66
2023/01/06 10:26:12;;;;;;;6.50;4.20;;;19.30;43.90;;;;;;5089504;28;20509;-67
2023/01/06 10:28:42;;;;;;;6.97;3.70;;;19.60;43.10;;;;;;5089817;28;20546;-66
2023/01/06 10:31:12;;;;;;;6.40;3.10;;;19.80;41.80;;;;;;5091425;28;20474;-66
2023/01/06 10:33:46;;;;;;;4.13;2.30;;;19.90;41.60;;;;;;5091777;28;20443;-67
2023/01/06 10:36:16;;;;;;;4.17;2.37;;;19.90;40.60;;;;;;5091525;28;20467;-66
2023/01/06 10:38:46;;;;;;;6.13;2.80;;;19.90;41.10;;;;;;5091168;28;20531;-66
2023/01/06 10:41:21;;;;;;;4.90;2.10;;;20.20;40.70;;;;;;5086612;28;20447;-67
2023/01/06 10:43:48;;;;;;;3.50;1.87;;;20.50;40.00;;;;;;5088213;28;20500;-66
2023/01/06 10:46:16;;;;;;;4.37;2.40;;;20.80;39.10;;;;;;5091633;28;20864;-66
2023/01/06 10:48:45;;;;;;;3.90;2.10;;;21.30;39.80;;;;;;5090810;28;20513;-67
2023/01/06 10:51:36;;;;;;;3.40;1.63;;;21.40;38.60;;;;;;5083597;28;20782;-67
2023/01/06 10:54:08;;;;;;;7.00;2.03;;;21.50;38.10;;;;;;5083503;28;20951;-67
2023/01/06 10:56:37;;;;;;;2.80;1.40;;;21.70;38.80;;;;;;5089896;28;20439;-67
2023/01/06 10:59:09;;;;;;;2.77;1.50;;;21.80;39.50;;;;;;5087655;28;21027;-67
2023/01/06 11:01:49;;;;;;;4.53;1.60;;;22.30;40.20;;;;;;5084723;28;20452;-67
2023/01/06 11:04:18;;;;;;;7.17;2.10;;;22.80;39.20;;;;;;5090998;28;20802;-67
2023/01/06 11:06:50;;;;;;;3.63;1.13;;;23.20;38.40;;;;;;5090977;28;20431;-67
2023/01/06 11:09:33;;;;;;;2.40;1.10;;;23.50;37.90;;;;;;5091725;28;20447;-67
2023/01/06 11:12:04;;;;;;;3.50;0.87;;;23.80;37.60;;;;;;5086385;28;20867;-67
2023/01/06 11:14:33;;;;;;;2.30;0.90;;;24.10;37.60;;;;;;5090674;28;20451;-67
2023/01/06 11:17:02;;;;;;;3.40;1.23;;;24.50;36.70;;;;;;5090365;28;20439;-68
2023/01/06 11:19:36;;;;;;;3.00;0.90;;;24.60;35.60;;;;;;5090307;28;20518;-67
2023/01/06 11:22:04;;;;;;;1.70;0.70;;;24.70;34.70;;;;;;5088980;28;20503;-67
2023/01/06 11:24:32;;;;;;;2.73;1.30;;;24.90;34.40;;;;;;5090041;28;20546;-68
2023/01/06 11:27:02;;;;;;;2.60;1.50;;;25.00;34.20;;;;;;5086703;28;20526;-67
2023/01/06 11:29:32;;;;;;;2.47;1.00;;;24.90;33.70;;;;;;5090630;28;20454;-67
2023/01/06 11:32:05;;;;;;;2.40;1.10;;;24.90;34.00;;;;;;5089900;28;20435;-67
2023/01/06 11:34:37;;;;;;;3.20;1.47;;;24.80;33.10;;;;;;5090730;28;20431;-67
2023/01/06 11:37:05;;;;;;;2.73;1.43;;;24.80;33.90;;;;;;5088220;28;20435;-67
2023/01/06 11:39:35;;;;;;;3.70;1.77;;;24.70;33.30;;;;;;5094757;28;20477;-67
2023/01/06 11:42:09;;;;;;;3.80;1.40;;;24.60;33.30;;;;;;5090950;28;20443;-67
2023/01/06 11:44:38;;;;;;;2.50;1.37;;;24.60;33.80;;;;;;5090038;28;20443;-67
2023/01/06 11:47:14;;;;;;;2.20;1.30;;;24.50;33.80;;;;;;5088008;28;20481;-68
2023/01/06 11:49:48;;;;;;;3.10;1.20;;;24.50;34.00;;;;;;5087746;28;20549;-67
2023/01/06 11:52:25;;;;;;;3.60;1.50;;;24.60;33.70;;;;;;5090173;28;20959;-67
2023/01/06 11:55:01;;;;;;;2.97;1.70;;;24.50;34.20;;;;;;5089101;28;21802;-68
2023/01/06 11:57:37;;;;;;;2.77;1.60;;;24.60;33.50;;;;;;5089990;28;20438;-67
2023/01/06 12:00:37;;;;;;;5.77;1.90;;;24.40;33.70;;;;;;5088350;28;20482;-67
2023/01/06 12:03:15;;;;;;;3.13;1.57;;;24.30;33.40;;;;;;5089427;28;21208;-67
2023/01/06 12:05:51;;;;;;;6.03;1.93;;;23.70;33.50;;;;;;5090346;28;20853;-67
2023/01/06 12:08:31;;;;;;;2.40;1.07;;;23.30;34.10;;;;;;5093547;28;20493;-67
2023/01/06 12:11:03;;;;;;;2.20;1.30;;;23.20;34.70;;;;;;5091436;28;20455;-67
2023/01/06 12:13:32;;;;;;;3.03;1.33;;;23.00;34.90;;;;;;5089622;28;20790;-67
2023/01/06 12:16:04;;;;;;;2.20;1.23;;;22.70;35.00;;;;;;5088804;28;20486;-67
2023/01/06 12:18:35;;;;;;;2.20;1.17;;;22.20;35.60;;;;;;5093091;28;20473;-67
2023/01/06 12:21:05;;;;;;;2.00;0.93;;;21.70;36.10;;;;;;5092681;28;20466;-67
2023/01/06 12:23:39;;;;;;;2.87;1.50;;;21.30;36.60;;;;;;5092692;28;20497;-69
2023/01/06 12:26:17;;;;;;;2.37;1.07;;;21.00;37.40;;;;;;5095814;28;20469;-68
2023/01/06 12:28:47;;;;;;;2.33;1.00;;;20.70;37.90;;;;;;5090536;28;20439;-67
2023/01/06 12:34:11;;;;;;;2.33;1.17;;;20.50;38.10;;;;;;5087623;28;20459;-68
2023/01/06 12:36:47;;;;;;;2.30;1.20;;;20.10;38.30;;;;;;5091922;28;20800;-72
2023/01/06 12:39:23;;;;;;;2.77;1.20;;;20.30;39.10;;;;;;5086429;28;21443;-66
2023/01/06 12:41:55;;;;;;;2.90;1.13;;;20.50;39.00;;;;;;5091283;28;20473;-66
2023/01/06 12:44:48;;;;;;;2.10;1.00;;;20.60;38.40;;;;;;5093408;28;20439;-66
2023/01/06 12:47:19;;;;;;;2.10;0.97;;;20.40;38.40;;;;;;5089438;28;20957;-69
2023/01/06 12:49:53;;;;;;;1.90;0.97;;;20.10;38.90;;;;;;5091157;28;20443;-66
2023/01/06 12:52:26;;;;;;;1.90;0.90;;;19.80;39.60;;;;;;5086949;28;21006;-66
2023/01/06 12:54:56;;;;;;;2.10;0.90;;;19.50;39.70;;;;;;5092438;28;20474;-66
2023/01/06 12:57:46;;;;;;;1.90;0.97;;;19.50;40.70;;;;;;5091473;28;20953;-66
2023/01/06 13:00:28;;;;;;;2.60;1.00;;;19.50;40.90;;;;;;5091840;28;20511;-66
2023/01/06 13:03:17;;;;;;;2.43;1.10;;;19.40;40.60;;;;;;5091536;28;20441;-66
2023/01/06 13:06:17;;;;;;;2.20;0.80;;;19.40;40.50;;;;;;5093565;28;20451;-66
2023/01/06 13:09:01;;;;;;;2.00;0.70;;;19.50;40.30;;;;;;5090398;28;20447;-66
2023/01/06 13:11:42;;;;;;;1.80;0.73;;;19.60;40.50;;;;;;5088886;28;20435;-66
2023/01/06 13:14:16;;;;;;;1.90;0.80;;;19.50;40.20;;;;;;5092932;28;21347;-68
2023/01/06 13:16:51;;;;;;;2.20;0.80;;;19.10;40.30;;;;;;5075010;28;20901;-66
2023/01/06 13:19:31;;;;;;;2.40;1.03;;;18.90;41.10;;;;;;5091618;28;20482;-67
2023/01/06 13:22:06;;;;;;;2.30;1.03;;;18.70;41.10;;;;;;5087845;28;20960;-65
2023/01/06 13:24:47;;;;;;;2.90;1.17;;;18.30;41.50;;;;;;5086878;28;20550;-65
2023/01/06 13:27:40;;;;;;;2.17;1.03;;;17.90;41.70;;;;;;5086720;28;20543;-67